createdAt,value
2022-10-03T00:01:51.820Z,24.10
2022-10-03T00:04:33.347Z,26.15
2022-10-03T00:07:21.454Z,22.58
2022-10-03T00:10:18.711Z,24.42
2022-10-03T00:13:14.093Z,24.67
2022-10-03T00:15:46.297Z,24.30
2022-10-03T00:18:40.017Z,26.80
2022-10-03T00:21:52.663Z,28.90
2022-10-03T00:24:57.909Z,31.85
2022-10-03T00:27:43.369Z,33.25
2022-10-03T00:30:19.030Z,33.15
2022-10-03T00:33:14.361Z,38.20
2022-10-03T00:35:49.661Z,36.95
2022-10-03T00:38:22.469Z,39.80
2022-10-03T00:41:21.814Z,38.42
2022-10-03T00:44:12.534Z,36.00
2022-10-03T00:46:57.248Z,37.58
2022-10-03T00:49:45.140Z,35.05
2022-10-03T00:52:40.229Z,35.47
2022-10-03T00:55:14.474Z,36.38
2022-10-03T00:58:17.954Z,38.92
2022-10-03T01:00:51.257Z,38.33
2022-10-03T01:03:36.267Z,39.50
2022-10-03T01:06:15.751Z,38.15
2022-10-03T01:08:57.439Z,40.38
2022-10-03T01:11:42.087Z,37.17
2022-10-03T01:14:20.678Z,40.70
2022-10-03T01:16:56.094Z,38.45
2022-10-03T01:19:33.329Z,40.92
2022-10-03T01:22:21.454Z,39.40
2022-10-03T01:25:18.334Z,40.15
2022-10-03T01:28:37.490Z,37.50
2022-10-03T01:31:11.145Z,37.88
2022-10-03T01:33:54.655Z,40.45
2022-10-03T01:37:08.828Z,39.85
2022-10-03T01:39:44.445Z,35.92
2022-10-03T01:42:20.506Z,36.13
2022-10-03T01:45:02.933Z,39.03
2022-10-03T01:47:47.322Z,38.38
2022-10-03T01:50:37.291Z,40.40
2022-10-03T01:53:28.572Z,39.92
2022-10-03T01:55:59.840Z,42.78
2022-10-03T01:58:56.653Z,43.85
2022-10-03T02:01:39.510Z,42.50
2022-10-03T02:04:12.089Z,46.13
2022-10-03T02:06:43.860Z,45.53
2022-10-03T02:09:25.131Z,46.75
2022-10-03T02:11:51.405Z,44.17
2022-10-03T02:14:25.967Z,45.47
2022-10-03T02:17:04.976Z,47.65
2022-10-03T02:19:45.708Z,46.50
2022-10-03T02:22:28.638Z,46.00
2022-10-03T02:25:31.116Z,44.00
2022-10-03T02:28:13.735Z,43.60
2022-10-03T02:31:04.661Z,49.00
2022-10-03T02:33:52.839Z,50.83
2022-10-03T02:36:40.663Z,49.88
2022-10-03T02:39:16.827Z,47.70
2022-10-03T02:42:17.425Z,49.30
2022-10-03T02:45:12.140Z,49.22
2022-10-03T02:48:27.109Z,44.92
2022-10-03T02:51:06.861Z,50.97
2022-10-03T02:53:44.947Z,48.08
2022-10-03T02:56:30.222Z,47.25
2022-10-03T02:59:08.740Z,49.45
2022-10-03T03:01:50.380Z,50.58
2022-10-03T03:04:28.843Z,50.60
2022-10-03T03:07:36.992Z,50.00
2022-10-03T03:10:15.439Z,49.92
2022-10-03T03:13:01.250Z,49.22
2022-10-03T03:16:05.359Z,48.30
2022-10-03T03:18:54.923Z,43.40
2022-10-03T03:21:29.351Z,44.58
2022-10-03T03:23:58.805Z,47.08
2022-10-03T03:26:28.899Z,44.42
2022-10-03T03:29:24.905Z,43.35
2022-10-03T03:32:22.812Z,42.17
2022-10-03T03:35:11.055Z,40.50
2022-10-03T03:38:08.403Z,37.45
2022-10-03T03:40:56.476Z,39.72
2022-10-03T03:43:34.253Z,41.20
2022-10-03T03:46:29.770Z,39.85
2022-10-03T03:49:29.485Z,30.77
2022-10-03T03:52:01.950Z,31.77
2022-10-03T03:54:51.265Z,32.00
2022-10-03T03:57:47.166Z,31.83
2022-10-03T04:00:20.985Z,33.88
2022-10-03T04:03:03.698Z,32.10
2022-10-03T04:06:03.361Z,28.83
2022-10-03T04:09:03.421Z,26.63
2022-10-03T04:11:49.808Z,26.25
2022-10-03T04:14:37.538Z,28.70
2022-10-03T04:17:31.782Z,29.27
2022-10-03T04:20:01.087Z,28.15
2022-10-03T04:22:36.577Z,28.10
2022-10-03T04:25:29.073Z,24.63
2022-10-03T04:28:33.063Z,25.40
2022-10-03T04:31:21.998Z,25.98
2022-10-03T04:34:15.049Z,25.70
2022-10-03T04:36:48.784Z,24.45
2022-10-03T04:39:42.279Z,24.05
2022-10-03T04:42:28.120Z,24.00
2022-10-03T04:45:07.336Z,23.27
2022-10-03T04:47:42.756Z,24.42
2022-10-03T04:50:12.079Z,24.83
2022-10-03T04:52:49.966Z,25.08
2022-10-03T04:55:39.083Z,25.98
2022-10-03T04:58:16.947Z,24.65
2022-10-03T05:00:56.614Z,26.08
2022-10-03T05:03:41.570Z,25.67
2022-10-03T05:06:26.289Z,25.73
2022-10-03T05:11:36.452Z,25.65
2022-10-03T05:14:29.509Z,28.42
2022-10-03T05:17:07.059Z,30.55
2022-10-03T05:19:42.403Z,28.77
2022-10-03T05:22:27.147Z,29.30
2022-10-03T05:25:22.734Z,30.27
2022-10-03T05:28:22.134Z,29.23
2022-10-03T05:31:37.760Z,28.73
2022-10-03T05:34:18.912Z,32.75
2022-10-03T05:37:09.606Z,30.85
2022-10-03T05:40:02.135Z,28.48
2022-10-03T05:42:49.582Z,28.25
2022-10-03T05:45:30.213Z,29.73
2022-10-03T05:48:14.233Z,33.08
2022-10-03T05:51:16.237Z,31.52
2022-10-03T05:53:57.657Z,28.70
2022-10-03T05:56:41.678Z,33.90
2022-10-03T05:59:16.654Z,35.50
2022-10-03T06:02:08.433Z,37.03
2022-10-03T06:05:01.571Z,40.00
2022-10-03T06:08:01.107Z,37.85
2022-10-03T06:10:58.585Z,38.60
2022-10-03T06:13:46.983Z,42.28
2022-10-03T06:16:31.590Z,47.47
2022-10-03T06:21:42.230Z,39.60
2022-10-03T06:24:14.562Z,53.53
2022-10-03T06:26:49.858Z,55.05
2022-10-03T06:29:54.454Z,53.53
2022-10-03T06:33:09.166Z,52.78
2022-10-03T06:35:56.952Z,55.60
2022-10-03T06:38:49.071Z,53.95
2022-10-03T06:41:47.863Z,55.08
2022-10-03T06:44:32.704Z,52.03
2022-10-03T06:47:31.415Z,53.33
2022-10-03T06:50:13.078Z,52.25
2022-10-03T06:52:54.654Z,50.72
2022-10-03T06:55:56.384Z,50.47
2022-10-03T06:58:44.005Z,50.35
2022-10-03T07:01:52.488Z,49.58
2022-10-03T07:05:05.315Z,50.35
2022-10-03T07:08:15.689Z,50.50
2022-10-03T07:10:41.929Z,52.67
2022-10-03T07:13:39.222Z,51.80
2022-10-03T07:16:43.621Z,55.00
2022-10-03T07:19:27.730Z,55.38
2022-10-03T07:22:11.589Z,60.53
2022-10-03T07:25:06.002Z,58.70
2022-10-03T07:27:35.285Z,59.15
2022-10-03T07:30:19.010Z,55.78
2022-10-03T07:33:16.302Z,57.47
2022-10-03T07:36:51.977Z,54.35
2022-10-03T07:39:49.607Z,52.53
2022-10-03T07:42:46.980Z,49.30
2022-10-03T07:45:31.071Z,54.90
2022-10-03T07:48:38.937Z,50.35
2022-10-03T07:51:24.092Z,54.33
2022-10-03T07:54:32.075Z,54.10
2022-10-03T07:57:25.366Z,53.65
2022-10-03T08:00:07.885Z,56.08
2022-10-03T08:03:03.770Z,51.78
2022-10-03T08:05:52.326Z,52.33
2022-10-03T08:08:56.802Z,52.80
2022-10-03T08:11:42.262Z,55.47
2022-10-03T08:14:36.535Z,56.72
2022-10-03T08:17:13.843Z,54.28
2022-10-03T08:20:18.504Z,53.05
2022-10-03T08:23:08.770Z,50.67
2022-10-03T08:25:53.910Z,46.85
2022-10-03T08:28:50.405Z,49.60
2022-10-03T08:31:25.340Z,52.50
2022-10-03T08:34:32.667Z,47.83
2022-10-03T08:37:31.497Z,42.53
2022-10-03T08:40:42.421Z,38.92
2022-10-03T08:43:37.334Z,38.40
2022-10-03T08:46:33.733Z,42.17
2022-10-03T08:49:33.988Z,38.22
2022-10-03T08:52:33.298Z,35.47
2022-10-03T08:55:25.339Z,34.78
2022-10-03T08:58:28.811Z,34.70
2022-10-03T09:01:18.441Z,32.92
2022-10-03T09:04:05.922Z,33.10
2022-10-03T09:09:53.727Z,33.35
2022-10-03T09:12:31.597Z,32.85
2022-10-03T09:15:42.475Z,32.20
2022-10-03T09:18:35.680Z,31.63
2022-10-03T09:21:22.589Z,33.15
2022-10-03T09:24:18.483Z,33.08
2022-10-03T09:27:09.300Z,33.75
2022-10-03T09:29:47.929Z,35.25
2022-10-03T09:32:36.345Z,33.58
2022-10-03T09:35:33.643Z,34.15
2022-10-03T09:38:21.941Z,30.35
2022-10-03T09:41:08.363Z,28.23
2022-10-03T09:43:53.670Z,25.20
2022-10-03T09:47:16.034Z,23.15
2022-10-03T09:50:19.862Z,23.30
2022-10-03T09:53:04.200Z,22.05
2022-10-03T09:55:39.623Z,23.77
2022-10-03T09:58:39.830Z,26.55
2022-10-03T10:01:27.527Z,31.15
2022-10-03T10:04:09.123Z,30.98
2022-10-03T10:06:57.597Z,29.80
2022-10-03T10:09:52.925Z,26.23
2022-10-03T10:12:31.568Z,34.22
2022-10-03T10:15:30.365Z,35.65
2022-10-03T10:18:26.056Z,33.42
2022-10-03T10:21:11.114Z,25.98
2022-10-03T10:24:02.260Z,26.15
2022-10-03T10:26:53.958Z,29.73
2022-10-03T10:29:39.030Z,18.08
2022-10-03T10:32:41.768Z,12.07
2022-10-03T10:35:39.131Z,12.00
2022-10-03T10:38:26.666Z,11.05
2022-10-03T10:41:11.911Z,10.50
2022-10-03T10:44:16.947Z,9.05
2022-10-03T10:47:05.973Z,8.45
2022-10-03T10:50:11.677Z,8.48
2022-10-03T10:53:09.265Z,9.05
2022-10-03T10:55:57.065Z,10.57
2022-10-03T10:59:01.504Z,10.38
2022-10-03T11:01:49.147Z,8.77
2022-10-03T11:04:38.299Z,9.45
2022-10-03T11:07:36.854Z,9.57
2022-10-03T11:10:31.534Z,12.00
2022-10-03T11:13:00.920Z,8.80
2022-10-03T11:15:53.566Z,11.35
2022-10-03T11:18:54.005Z,8.90
2022-10-03T11:21:42.191Z,7.78
2022-10-03T11:24:23.831Z,10.88
2022-10-03T11:27:18.193Z,14.93
2022-10-03T11:30:08.897Z,14.27
2022-10-03T11:33:24.008Z,13.40
2022-10-03T11:36:16.205Z,14.07
2022-10-03T11:39:20.866Z,12.77
2022-10-03T11:41:51.778Z,12.98
2022-10-03T11:44:31.227Z,13.77
2022-10-03T11:47:20.859Z,11.40
2022-10-03T11:50:24.815Z,12.68
2022-10-03T11:53:20.315Z,10.48
2022-10-03T11:55:51.328Z,7.55
2022-10-03T11:58:42.211Z,10.00
2022-10-03T12:01:33.705Z,12.60
2022-10-03T12:04:37.156Z,9.50
2022-10-03T12:07:31.951Z,10.07
2022-10-03T12:10:18.186Z,10.00
2022-10-03T12:12:55.194Z,11.48
2022-10-03T12:15:38.183Z,9.25
2022-10-03T12:18:18.057Z,8.15
2022-10-03T12:21:06.989Z,9.15
2022-10-03T12:23:55.272Z,11.10
2022-10-03T12:26:55.687Z,10.27
2022-10-03T12:29:26.450Z,10.45
2022-10-03T12:32:04.265Z,10.05
2022-10-03T12:35:10.821Z,9.85
2022-10-03T12:37:52.053Z,10.27
2022-10-03T12:40:24.463Z,9.00
2022-10-03T12:43:15.696Z,9.77
2022-10-03T12:45:52.529Z,8.27
2022-10-03T12:48:57.444Z,7.72
2022-10-03T12:51:48.667Z,9.40
2022-10-03T12:54:43.441Z,8.13
2022-10-03T12:57:46.327Z,7.50
2022-10-03T13:00:24.139Z,7.35
2022-10-03T13:03:31.190Z,7.40
2022-10-03T13:06:44.519Z,7.75
2022-10-03T13:09:23.342Z,7.10
2022-10-03T13:12:07.901Z,7.28
2022-10-03T13:15:20.960Z,9.82
2022-10-03T13:17:59.339Z,7.63
2022-10-03T13:20:34.706Z,6.53
2022-10-03T13:23:20.452Z,6.65
2022-10-03T13:25:57.185Z,6.75
2022-10-03T13:28:32.335Z,7.45
2022-10-03T13:31:15.897Z,7.45
2022-10-03T13:33:47.021Z,8.52
2022-10-03T13:36:23.675Z,8.02
2022-10-03T13:39:11.545Z,7.65
2022-10-03T13:42:02.098Z,6.72
2022-10-03T13:44:36.915Z,7.28
2022-10-03T13:47:12.235Z,6.93
2022-10-03T13:50:02.444Z,8.55
2022-10-03T13:52:41.721Z,8.02
2022-10-03T13:55:32.490Z,7.55
2022-10-03T13:58:36.356Z,7.85
2022-10-03T14:01:13.501Z,7.32
2022-10-03T14:04:07.546Z,9.70
2022-10-03T14:06:48.106Z,7.05
2022-10-03T14:09:33.199Z,8.30
2022-10-03T14:12:33.083Z,8.10
2022-10-03T14:15:25.738Z,8.07
2022-10-03T14:21:17.607Z,8.25
2022-10-03T14:24:02.535Z,8.63
2022-10-03T14:26:42.657Z,9.68
2022-10-03T14:29:12.007Z,8.68
2022-10-03T14:31:56.987Z,9.07
2022-10-03T14:34:40.029Z,9.00
2022-10-03T14:37:14.218Z,11.77
2022-10-03T14:39:52.875Z,9.15
2022-10-03T14:43:03.316Z,8.32
2022-10-03T14:45:45.132Z,8.18
2022-10-03T14:48:23.799Z,8.60
2022-10-03T14:50:55.869Z,9.93
2022-10-03T14:53:29.960Z,8.10
2022-10-03T14:56:10.348Z,9.60
2022-10-03T14:58:48.875Z,10.15
2022-10-03T15:01:20.566Z,8.65
2022-10-03T15:04:13.621Z,8.80
2022-10-03T15:06:46.235Z,10.20
2022-10-03T15:09:18.392Z,10.68
2022-10-03T15:11:49.553Z,8.95
2022-10-03T15:14:16.586Z,9.50
2022-10-03T15:16:56.061Z,9.95
2022-10-03T15:19:47.735Z,10.05
2022-10-03T15:22:29.368Z,9.25
2022-10-03T15:25:02.939Z,9.32
2022-10-03T15:27:30.390Z,9.75
2022-10-03T15:30:04.292Z,12.10
2022-10-03T15:32:44.778Z,10.80
2022-10-03T15:35:18.064Z,10.15
2022-10-03T15:37:47.824Z,11.35
2022-10-03T15:40:35.476Z,11.07
2022-10-03T15:43:12.914Z,12.10
2022-10-03T15:45:40.627Z,10.98
2022-10-03T15:48:16.405Z,9.25
2022-10-03T15:50:49.573Z,9.85
2022-10-03T15:53:36.239Z,10.15
2022-10-03T15:56:18.870Z,9.77
2022-10-03T15:58:52.749Z,10.48
2022-10-03T16:01:23.372Z,8.88
2022-10-03T16:03:54.480Z,9.75
2022-10-03T16:06:23.338Z,11.60
2022-10-03T16:09:07.976Z,9.65
2022-10-03T16:11:53.033Z,11.43
2022-10-03T16:14:41.166Z,15.43
2022-10-03T16:17:14.969Z,16.20
2022-10-03T16:19:49.563Z,14.65
2022-10-03T16:22:20.647Z,13.88
2022-10-03T16:24:46.972Z,16.45
2022-10-03T16:27:43.639Z,15.63
2022-10-03T16:30:09.947Z,13.60
2022-10-03T16:33:07.207Z,17.95
2022-10-03T16:35:35.464Z,15.23
2022-10-03T16:38:06.358Z,16.98
2022-10-03T16:40:37.764Z,20.13
2022-10-03T16:43:10.820Z,22.02
2022-10-03T16:45:44.288Z,24.48
2022-10-03T16:48:37.961Z,24.58
2022-10-03T16:51:10.276Z,23.25
2022-10-03T16:53:42.456Z,24.90
2022-10-03T16:56:15.568Z,23.13
2022-10-03T16:58:49.294Z,23.48
2022-10-03T17:01:28.286Z,22.23
2022-10-03T17:04:15.734Z,19.20
2022-10-03T17:06:47.437Z,19.42
2022-10-03T17:09:39.068Z,17.60
2022-10-03T17:12:14.220Z,19.60
2022-10-03T17:14:42.449Z,15.93
2022-10-03T17:17:25.091Z,19.83
2022-10-03T17:20:07.932Z,24.95
2022-10-03T17:22:43.215Z,24.48
2022-10-03T17:25:18.768Z,24.98
2022-10-03T17:27:50.062Z,27.05
2022-10-03T17:30:34.799Z,28.02
2022-10-03T17:36:02.973Z,25.33
2022-10-03T17:38:53.295Z,33.17
2022-10-03T17:41:27.504Z,38.83
2022-10-03T17:44:20.107Z,47.25
2022-10-03T17:46:58.636Z,44.65
2022-10-03T17:49:43.026Z,48.60
2022-10-03T17:52:19.762Z,48.17
2022-10-03T17:54:55.982Z,45.28
2022-10-03T17:57:59.531Z,49.80
2022-10-03T18:01:01.957Z,46.17
2022-10-03T18:03:39.373Z,41.15
2022-10-03T18:06:21.150Z,45.80
2022-10-03T18:08:50.847Z,45.78
2022-10-03T18:11:22.037Z,47.83
2022-10-03T18:14:00.097Z,44.20
2022-10-03T18:16:46.055Z,45.70
2022-10-03T18:19:39.774Z,49.75
2022-10-03T18:22:23.337Z,48.88
2022-10-03T18:26:19.925Z,48.38
2022-10-03T18:31:45.231Z,36.08
2022-10-03T18:34:21.776Z,40.75
2022-10-03T18:36:51.197Z,38.72
2022-10-03T18:39:22.302Z,39.95
2022-10-03T18:41:52.247Z,38.92
2022-10-03T18:44:22.064Z,39.55
2022-10-03T18:46:53.092Z,37.30
2022-10-03T18:49:34.079Z,42.08
2022-10-03T18:52:04.258Z,40.97
2022-10-03T18:54:42.627Z,41.08
2022-10-03T18:57:36.053Z,42.35
2022-10-03T19:00:18.042Z,36.85
2022-10-03T19:02:53.016Z,53.53
2022-10-03T19:05:19.293Z,48.50
2022-10-03T19:08:00.706Z,51.67
2022-10-03T19:10:39.226Z,48.53
2022-10-03T19:13:12.279Z,43.45
2022-10-03T19:16:09.110Z,46.40
2022-10-03T19:18:43.318Z,40.67
2022-10-03T19:21:18.832Z,41.90
2022-10-03T19:23:51.165Z,39.55
2022-10-03T19:26:25.754Z,42.00
2022-10-03T19:28:56.451Z,38.25
2022-10-03T19:31:30.011Z,38.67
2022-10-03T19:34:02.945Z,36.35
2022-10-03T19:36:34.174Z,38.30
2022-10-03T19:39:01.377Z,35.10
2022-10-03T19:41:35.113Z,37.22
2022-10-03T19:44:09.277Z,38.10
2022-10-03T19:46:50.557Z,36.38
2022-10-03T19:49:23.699Z,38.80
2022-10-03T19:51:50.281Z,37.60
2022-10-03T19:54:43.226Z,34.53
2022-10-03T19:57:16.889Z,35.50
2022-10-03T19:59:46.859Z,36.63
2022-10-03T20:02:13.352Z,36.90
2022-10-03T20:04:40.325Z,34.47
2022-10-03T20:07:16.052Z,33.70
2022-10-03T20:09:56.322Z,33.85
2022-10-03T20:12:27.767Z,34.40
2022-10-03T20:14:58.103Z,34.38
2022-10-03T20:17:25.123Z,34.97
2022-10-03T20:19:58.102Z,34.53
2022-10-03T20:22:28.551Z,36.70
2022-10-03T20:24:55.678Z,33.08
2022-10-03T20:27:43.079Z,33.40
2022-10-03T20:30:30.821Z,32.60
2022-10-03T20:32:59.230Z,29.98
2022-10-03T20:35:31.933Z,35.72
2022-10-03T20:38:17.216Z,32.28
2022-10-03T20:40:52.179Z,31.85
2022-10-03T20:43:56.544Z,34.10
2022-10-03T20:46:26.265Z,30.90
2022-10-03T20:49:10.971Z,33.05
2022-10-03T20:54:12.601Z,34.30
2022-10-03T20:56:54.496Z,33.83
2022-10-03T20:59:27.336Z,31.05
2022-10-03T21:02:05.805Z,32.47
2022-10-03T21:04:40.002Z,33.70
2022-10-03T21:07:12.140Z,33.22
2022-10-03T21:10:01.933Z,31.92
2022-10-03T21:12:34.119Z,34.88
2022-10-03T21:15:16.217Z,33.10
2022-10-03T21:17:45.355Z,31.33
2022-10-03T21:20:18.654Z,32.88
2022-10-03T21:22:50.018Z,30.88
2022-10-03T21:25:30.226Z,30.40
2022-10-03T21:27:57.732Z,32.80
2022-10-03T21:30:36.028Z,36.58
2022-10-03T21:33:09.742Z,34.38
2022-10-03T21:35:39.498Z,33.60
2022-10-03T21:38:11.879Z,35.33
2022-10-03T21:41:04.634Z,35.17
2022-10-03T21:43:33.902Z,33.88
2022-10-03T21:46:19.956Z,35.30
2022-10-03T21:49:04.695Z,34.78
2022-10-03T21:54:24.256Z,28.70
2022-10-03T21:57:08.738Z,31.83
2022-10-03T21:59:49.587Z,34.60
2022-10-03T22:02:41.087Z,35.70
2022-10-03T22:05:27.483Z,35.42
2022-10-03T22:07:53.977Z,35.65
2022-10-03T22:10:39.974Z,35.83
2022-10-03T22:13:09.097Z,36.60
2022-10-03T22:15:57.842Z,36.92
2022-10-03T22:18:30.250Z,36.20
2022-10-03T22:21:23.878Z,36.30
2022-10-03T22:24:01.535Z,36.25
2022-10-03T22:26:35.910Z,38.70
2022-10-03T22:31:52.021Z,37.33
2022-10-03T22:34:54.503Z,37.17
2022-10-03T22:37:22.154Z,37.58
2022-10-03T22:39:49.276Z,37.55
2022-10-03T22:42:16.507Z,39.42
2022-10-03T22:44:46.326Z,35.22
2022-10-03T22:47:19.391Z,34.10
2022-10-03T22:49:48.188Z,35.08
2022-10-03T22:52:24.195Z,34.97
2022-10-03T22:54:52.429Z,33.55
2022-10-03T22:57:19.413Z,34.17
2022-10-03T22:59:51.839Z,31.30
2022-10-03T23:02:25.544Z,30.95
2022-10-03T23:05:15.759Z,32.13
2022-10-03T23:07:59.999Z,29.60
2022-10-03T23:10:31.753Z,35.05
2022-10-03T23:13:06.466Z,34.83
2022-10-03T23:15:37.365Z,34.72
2022-10-03T23:18:40.181Z,31.88
2022-10-03T23:21:13.079Z,32.85
2022-10-03T23:24:10.181Z,31.77
2022-10-03T23:26:48.713Z,34.72
2022-10-03T23:29:17.006Z,34.17
2022-10-03T23:31:58.237Z,36.10
2022-10-03T23:34:39.873Z,34.90
2022-10-03T23:37:15.173Z,34.53
2022-10-03T23:39:44.102Z,33.20
2022-10-03T23:42:19.169Z,35.42
2022-10-03T23:44:57.803Z,33.28
2022-10-03T23:47:38.996Z,32.85
2022-10-03T23:50:07.022Z,31.60
2022-10-03T23:52:47.146Z,32.55
2022-10-03T23:55:23.157Z,31.52
2022-10-03T23:57:49.854Z,30.48
